sensor_id;sensor_type;location;lat;lon;timestamp;P1;durP1;ratioP1;P2;durP2;ratioP2
70305;SDS011;57714;51.698;5.344;2022-09-13T00:01:12;1.30;;;0.90;;
70305;SDS011;57714;51.698;5.344;2022-09-13T00:03:37;1.30;;;0.82;;
70305;SDS011;57714;51.698;5.344;2022-09-13T00:06:06;1.40;;;0.80;;
70305;SDS011;57714;51.698;5.344;2022-09-13T00:08:32;0.95;;;0.68;;
70305;SDS011;57714;51.698;5.344;2022-09-13T00:10:57;1.00;;;0.70;;
70305;SDS011;57714;51.698;5.344;2022-09-13T00:13:23;1.00;;;0.70;;
70305;SDS011;57714;51.698;5.344;2022-09-13T00:15:48;1.00;;;0.70;;
70305;SDS011;57714;51.698;5.344;2022-09-13T00:18:14;1.20;;;0.80;;
70305;SDS011;57714;51.698;5.344;2022-09-13T00:20:40;0.95;;;0.68;;
70305;SDS011;57714;51.698;5.344;2022-09-13T00:23:05;1.30;;;0.83;;
70305;SDS011;57714;51.698;5.344;2022-09-13T00:25:31;0.90;;;0.60;;
70305;SDS011;57714;51.698;5.344;2022-09-13T00:27:56;1.07;;;0.73;;
70305;SDS011;57714;51.698;5.344;2022-09-13T00:30:22;1.10;;;0.80;;
70305;SDS011;57714;51.698;5.344;2022-09-13T00:32:47;1.10;;;0.80;;
70305;SDS011;57714;51.698;5.344;2022-09-13T00:35:12;1.17;;;0.73;;
70305;SDS011;57714;51.698;5.344;2022-09-13T00:37:38;1.10;;;0.80;;
70305;SDS011;57714;51.698;5.344;2022-09-13T00:40:03;1.10;;;0.70;;
70305;SDS011;57714;51.698;5.344;2022-09-13T00:42:30;1.00;;;0.70;;
70305;SDS011;57714;51.698;5.344;2022-09-13T00:50:48;3.10;;;2.47;;
70305;SDS011;57714;51.698;5.344;2022-09-13T00:53:29;1.30;;;0.70;;
70305;SDS011;57714;51.698;5.344;2022-09-13T00:55:37;1.30;;;0.80;;
70305;SDS011;57714;51.698;5.344;2022-09-13T00:58:12;1.23;;;0.80;;
70305;SDS011;57714;51.698;5.344;2022-09-13T01:00:41;4.70;;;1.00;;
70305;SDS011;57714;51.698;5.344;2022-09-13T01:03:07;1.52;;;1.02;;
70305;SDS011;57714;51.698;5.344;2022-09-13T01:05:41;1.10;;;0.70;;
70305;SDS011;57714;51.698;5.344;2022-09-13T01:08:08;1.10;;;0.80;;
70305;SDS011;57714;51.698;5.344;2022-09-13T01:10:40;1.33;;;1.00;;
70305;SDS011;57714;51.698;5.344;2022-09-13T01:13:13;1.95;;;1.10;;
70305;SDS011;57714;51.698;5.344;2022-09-13T01:15:41;1.48;;;1.15;;
70305;SDS011;57714;51.698;5.344;2022-09-13T01:18:06;1.00;;;0.63;;
70305;SDS011;57714;51.698;5.344;2022-09-13T01:21:36;1.20;;;0.68;;
70305;SDS011;57714;51.698;5.344;2022-09-13T01:26:17;1.10;;;0.80;;
70305;SDS011;57714;51.698;5.344;2022-09-13T01:34:13;1.08;;;0.63;;
70305;SDS011;57714;51.698;5.344;2022-09-13T01:44:23;1.00;;;0.70;;
70305;SDS011;57714;51.698;5.344;2022-09-13T01:47:00;1.10;;;0.80;;
70305;SDS011;57714;51.698;5.344;2022-09-13T01:49:33;0.90;;;0.60;;
70305;SDS011;57714;51.698;5.344;2022-09-13T01:52:17;1.00;;;0.68;;
70305;SDS011;57714;51.698;5.344;2022-09-13T01:57:13;1.03;;;0.60;;
70305;SDS011;57714;51.698;5.344;2022-09-13T02:00:40;0.90;;;0.50;;
70305;SDS011;57714;51.698;5.344;2022-09-13T02:02:36;1.05;;;0.73;;
70305;SDS011;57714;51.698;5.344;2022-09-13T02:07:41;0.77;;;0.50;;
70305;SDS011;57714;51.698;5.344;2022-09-13T02:10:13;1.25;;;0.85;;
70305;SDS011;57714;51.698;5.344;2022-09-13T02:12:39;1.55;;;0.80;;
70305;SDS011;57714;51.698;5.344;2022-09-13T02:15:11;1.55;;;1.00;;
70305;SDS011;57714;51.698;5.344;2022-09-13T02:17:43;0.90;;;0.60;;
70305;SDS011;57714;51.698;5.344;2022-09-13T02:20:12;0.80;;;0.55;;
70305;SDS011;57714;51.698;5.344;2022-09-13T02:22:41;1.30;;;0.70;;
70305;SDS011;57714;51.698;5.344;2022-09-13T02:25:14;1.10;;;0.75;;
70305;SDS011;57714;51.698;5.344;2022-09-13T02:27:40;1.00;;;0.70;;
70305;SDS011;57714;51.698;5.344;2022-09-13T02:30:08;0.87;;;0.60;;
70305;SDS011;57714;51.698;5.344;2022-09-13T02:32:36;0.90;;;0.60;;
70305;SDS011;57714;51.698;5.344;2022-09-13T02:35:04;0.90;;;0.57;;
70305;SDS011;57714;51.698;5.344;2022-09-13T02:37:32;1.00;;;0.70;;
70305;SDS011;57714;51.698;5.344;2022-09-13T02:40:07;1.13;;;0.73;;
70305;SDS011;57714;51.698;5.344;2022-09-13T02:42:39;0.87;;;0.60;;
70305;SDS011;57714;51.698;5.344;2022-09-13T02:45:08;1.55;;;0.80;;
70305;SDS011;57714;51.698;5.344;2022-09-13T02:55:05;1.10;;;0.70;;
70305;SDS011;57714;51.698;5.344;2022-09-13T03:00:17;0.93;;;0.60;;
70305;SDS011;57714;51.698;5.344;2022-09-13T03:02:43;2.70;;;1.58;;
70305;SDS011;57714;51.698;5.344;2022-09-13T03:05:10;1.00;;;0.70;;
70305;SDS011;57714;51.698;5.344;2022-09-13T03:07:36;1.10;;;0.73;;
70305;SDS011;57714;51.698;5.344;2022-09-13T03:10:03;1.10;;;0.70;;
70305;SDS011;57714;51.698;5.344;2022-09-13T03:15:27;0.90;;;0.60;;
70305;SDS011;57714;51.698;5.344;2022-09-13T03:21:01;0.93;;;0.60;;
70305;SDS011;57714;51.698;5.344;2022-09-13T03:23:44;1.00;;;0.63;;
70305;SDS011;57714;51.698;5.344;2022-09-13T03:38:45;1.30;;;0.77;;
70305;SDS011;57714;51.698;5.344;2022-09-13T03:41:13;0.90;;;0.60;;
70305;SDS011;57714;51.698;5.344;2022-09-13T03:43:41;0.90;;;0.60;;
70305;SDS011;57714;51.698;5.344;2022-09-13T03:46:10;1.17;;;0.77;;
70305;SDS011;57714;51.698;5.344;2022-09-13T03:48:36;1.20;;;0.77;;
70305;SDS011;57714;51.698;5.344;2022-09-13T03:51:06;1.02;;;0.70;;
70305;SDS011;57714;51.698;5.344;2022-09-13T03:53:32;0.80;;;0.50;;
70305;SDS011;57714;51.698;5.344;2022-09-13T03:56:00;1.27;;;0.93;;
70305;SDS011;57714;51.698;5.344;2022-09-13T03:58:25;1.70;;;1.17;;
70305;SDS011;57714;51.698;5.344;2022-09-13T04:00:51;1.07;;;0.73;;
70305;SDS011;57714;51.698;5.344;2022-09-13T04:03:19;1.10;;;0.70;;
70305;SDS011;57714;51.698;5.344;2022-09-13T04:05:45;1.20;;;0.80;;
70305;SDS011;57714;51.698;5.344;2022-09-13T04:08:10;0.90;;;0.60;;
70305;SDS011;57714;51.698;5.344;2022-09-13T04:10:36;0.90;;;0.60;;
70305;SDS011;57714;51.698;5.344;2022-09-13T04:13:02;0.98;;;0.70;;
70305;SDS011;57714;51.698;5.344;2022-09-13T04:15:27;1.00;;;0.70;;
70305;SDS011;57714;51.698;5.344;2022-09-13T04:17:55;1.27;;;0.90;;
70305;SDS011;57714;51.698;5.344;2022-09-13T04:20:20;1.03;;;0.67;;
70305;SDS011;57714;51.698;5.344;2022-09-13T04:22:52;1.55;;;0.90;;
70305;SDS011;57714;51.698;5.344;2022-09-13T04:25:18;1.10;;;0.73;;
70305;SDS011;57714;51.698;5.344;2022-09-13T04:27:44;1.05;;;0.73;;
70305;SDS011;57714;51.698;5.344;2022-09-13T04:30:09;1.40;;;0.80;;
70305;SDS011;57714;51.698;5.344;2022-09-13T04:32:36;1.35;;;0.80;;
70305;SDS011;57714;51.698;5.344;2022-09-13T04:35:09;2.30;;;1.02;;
70305;SDS011;57714;51.698;5.344;2022-09-13T04:37:35;1.10;;;0.70;;
70305;SDS011;57714;51.698;5.344;2022-09-13T04:40:01;1.60;;;1.10;;
70305;SDS011;57714;51.698;5.344;2022-09-13T04:42:26;1.10;;;0.65;;
70305;SDS011;57714;51.698;5.344;2022-09-13T04:44:52;7.97;;;1.10;;
70305;SDS011;57714;51.698;5.344;2022-09-13T04:47:19;1.20;;;0.90;;
70305;SDS011;57714;51.698;5.344;2022-09-13T04:49:44;1.10;;;0.80;;
70305;SDS011;57714;51.698;5.344;2022-09-13T04:52:13;1.42;;;1.05;;
70305;SDS011;57714;51.698;5.344;2022-09-13T04:54:40;1.65;;;1.20;;
70305;SDS011;57714;51.698;5.344;2022-09-13T04:57:05;1.30;;;1.00;;
70305;SDS011;57714;51.698;5.344;2022-09-13T04:59:31;2.03;;;1.73;;
70305;SDS011;57714;51.698;5.344;2022-09-13T05:01:57;1.20;;;0.85;;
70305;SDS011;57714;51.698;5.344;2022-09-13T05:04:23;1.83;;;1.40;;
70305;SDS011;57714;51.698;5.344;2022-09-13T05:06:48;1.40;;;1.00;;
70305;SDS011;57714;51.698;5.344;2022-09-13T05:09:13;1.83;;;1.20;;
70305;SDS011;57714;51.698;5.344;2022-09-13T05:11:40;1.10;;;0.73;;
70305;SDS011;57714;51.698;5.344;2022-09-13T05:14:05;2.13;;;1.30;;
70305;SDS011;57714;51.698;5.344;2022-09-13T05:16:32;1.20;;;0.90;;
70305;SDS011;57714;51.698;5.344;2022-09-13T05:18:58;1.35;;;1.10;;
70305;SDS011;57714;51.698;5.344;2022-09-13T05:21:24;1.55;;;0.90;;
70305;SDS011;57714;51.698;5.344;2022-09-13T05:23:50;2.88;;;1.90;;
70305;SDS011;57714;51.698;5.344;2022-09-13T05:26:17;1.37;;;0.83;;
70305;SDS011;57714;51.698;5.344;2022-09-13T05:28:42;1.08;;;0.75;;
70305;SDS011;57714;51.698;5.344;2022-09-13T05:31:12;1.58;;;1.27;;
70305;SDS011;57714;51.698;5.344;2022-09-13T05:33:38;1.27;;;0.80;;
70305;SDS011;57714;51.698;5.344;2022-09-13T05:36:05;1.47;;;1.10;;
70305;SDS011;57714;51.698;5.344;2022-09-13T05:38:30;1.30;;;1.00;;
70305;SDS011;57714;51.698;5.344;2022-09-13T05:40:56;1.20;;;0.88;;
70305;SDS011;57714;51.698;5.344;2022-09-13T05:43:22;1.02;;;0.73;;
70305;SDS011;57714;51.698;5.344;2022-09-13T05:45:48;1.47;;;1.10;;
70305;SDS011;57714;51.698;5.344;2022-09-13T05:48:13;1.25;;;0.85;;
70305;SDS011;57714;51.698;5.344;2022-09-13T05:50:39;1.10;;;0.70;;
70305;SDS011;57714;51.698;5.344;2022-09-13T05:53:05;1.10;;;0.80;;
70305;SDS011;57714;51.698;5.344;2022-09-13T05:55:30;2.13;;;1.73;;
70305;SDS011;57714;51.698;5.344;2022-09-13T05:57:56;2.13;;;1.70;;
70305;SDS011;57714;51.698;5.344;2022-09-13T06:00:22;1.27;;;0.90;;
70305;SDS011;57714;51.698;5.344;2022-09-13T06:02:48;1.50;;;1.00;;
70305;SDS011;57714;51.698;5.344;2022-09-13T06:05:13;1.07;;;0.73;;
70305;SDS011;57714;51.698;5.344;2022-09-13T06:07:39;2.53;;;1.80;;
70305;SDS011;57714;51.698;5.344;2022-09-13T06:10:08;2.05;;;1.45;;
70305;SDS011;57714;51.698;5.344;2022-09-13T06:12:34;1.80;;;1.02;;
70305;SDS011;57714;51.698;5.344;2022-09-13T06:15:00;2.53;;;1.30;;
70305;SDS011;57714;51.698;5.344;2022-09-13T06:17:25;2.67;;;1.80;;
70305;SDS011;57714;51.698;5.344;2022-09-13T06:19:51;1.73;;;1.13;;
70305;SDS011;57714;51.698;5.344;2022-09-13T06:22:16;2.27;;;1.33;;
70305;SDS011;57714;51.698;5.344;2022-09-13T06:24:43;1.60;;;1.20;;
70305;SDS011;57714;51.698;5.344;2022-09-13T06:27:08;1.40;;;1.10;;
70305;SDS011;57714;51.698;5.344;2022-09-13T06:29:35;2.05;;;1.38;;
70305;SDS011;57714;51.698;5.344;2022-09-13T06:32:01;1.38;;;0.90;;
70305;SDS011;57714;51.698;5.344;2022-09-13T06:34:26;3.23;;;1.57;;
70305;SDS011;57714;51.698;5.344;2022-09-13T06:36:52;2.45;;;1.27;;
70305;SDS011;57714;51.698;5.344;2022-09-13T06:39:18;1.20;;;0.80;;
70305;SDS011;57714;51.698;5.344;2022-09-13T06:41:43;2.90;;;1.83;;
70305;SDS011;57714;51.698;5.344;2022-09-13T06:44:08;1.20;;;0.90;;
70305;SDS011;57714;51.698;5.344;2022-09-13T06:46:34;1.10;;;0.70;;
70305;SDS011;57714;51.698;5.344;2022-09-13T06:49:01;1.23;;;0.90;;
70305;SDS011;57714;51.698;5.344;2022-09-13T06:51:27;1.40;;;1.00;;
70305;SDS011;57714;51.698;5.344;2022-09-13T06:53:54;2.35;;;1.65;;
70305;SDS011;57714;51.698;5.344;2022-09-13T06:56:35;1.47;;;1.00;;
70305;SDS011;57714;51.698;5.344;2022-09-13T06:59:02;1.75;;;1.15;;
70305;SDS011;57714;51.698;5.344;2022-09-13T07:01:38;1.83;;;1.48;;
70305;SDS011;57714;51.698;5.344;2022-09-13T07:04:08;1.67;;;1.40;;
70305;SDS011;57714;51.698;5.344;2022-09-13T07:06:35;2.85;;;1.45;;
70305;SDS011;57714;51.698;5.344;2022-09-13T07:09:01;1.60;;;1.17;;
70305;SDS011;57714;51.698;5.344;2022-09-13T07:11:35;5.82;;;2.20;;
70305;SDS011;57714;51.698;5.344;2022-09-13T07:14:00;2.00;;;1.38;;
70305;SDS011;57714;51.698;5.344;2022-09-13T07:16:29;4.50;;;1.65;;
70305;SDS011;57714;51.698;5.344;2022-09-13T07:18:56;1.97;;;1.40;;
70305;SDS011;57714;51.698;5.344;2022-09-13T07:21:22;1.20;;;0.85;;
70305;SDS011;57714;51.698;5.344;2022-09-13T07:23:48;2.38;;;1.25;;
70305;SDS011;57714;51.698;5.344;2022-09-13T07:26:14;1.40;;;0.90;;
70305;SDS011;57714;51.698;5.344;2022-09-13T07:28:41;1.53;;;1.17;;
70305;SDS011;57714;51.698;5.344;2022-09-13T07:31:10;1.50;;;1.20;;
70305;SDS011;57714;51.698;5.344;2022-09-13T07:33:36;2.22;;;1.80;;
70305;SDS011;57714;51.698;5.344;2022-09-13T07:36:03;3.05;;;1.80;;
70305;SDS011;57714;51.698;5.344;2022-09-13T07:38:33;2.22;;;1.55;;
70305;SDS011;57714;51.698;5.344;2022-09-13T07:40:59;1.33;;;0.97;;
70305;SDS011;57714;51.698;5.344;2022-09-13T07:43:25;1.30;;;0.90;;
70305;SDS011;57714;51.698;5.344;2022-09-13T07:46:04;1.77;;;1.27;;
70305;SDS011;57714;51.698;5.344;2022-09-13T07:48:30;1.63;;;1.10;;
70305;SDS011;57714;51.698;5.344;2022-09-13T07:51:00;1.05;;;0.70;;
70305;SDS011;57714;51.698;5.344;2022-09-13T07:53:26;1.58;;;1.13;;
70305;SDS011;57714;51.698;5.344;2022-09-13T07:55:51;1.73;;;1.43;;
70305;SDS011;57714;51.698;5.344;2022-09-13T07:58:17;1.55;;;1.13;;
70305;SDS011;57714;51.698;5.344;2022-09-13T08:00:43;1.20;;;0.80;;
70305;SDS011;57714;51.698;5.344;2022-09-13T08:03:09;3.83;;;1.90;;
70305;SDS011;57714;51.698;5.344;2022-09-13T08:05:38;3.10;;;1.05;;
70305;SDS011;57714;51.698;5.344;2022-09-13T08:08:03;1.70;;;1.30;;
70305;SDS011;57714;51.698;5.344;2022-09-13T08:10:29;1.93;;;1.33;;
70305;SDS011;57714;51.698;5.344;2022-09-13T08:12:54;1.55;;;0.82;;
70305;SDS011;57714;51.698;5.344;2022-09-13T08:15:19;1.50;;;0.97;;
70305;SDS011;57714;51.698;5.344;2022-09-13T08:17:45;2.33;;;1.90;;
70305;SDS011;57714;51.698;5.344;2022-09-13T08:20:10;8.17;;;4.60;;
70305;SDS011;57714;51.698;5.344;2022-09-13T08:22:36;11.67;;;5.73;;
70305;SDS011;57714;51.698;5.344;2022-09-13T08:25:01;5.17;;;3.47;;
70305;SDS011;57714;51.698;5.344;2022-09-13T08:27:27;27.77;;;5.83;;
70305;SDS011;57714;51.698;5.344;2022-09-13T08:29:52;9.32;;;4.22;;
70305;SDS011;57714;51.698;5.344;2022-09-13T08:32:18;9.80;;;5.43;;
70305;SDS011;57714;51.698;5.344;2022-09-13T08:34:44;11.03;;;5.90;;
70305;SDS011;57714;51.698;5.344;2022-09-13T08:37:09;9.97;;;6.80;;
70305;SDS011;57714;51.698;5.344;2022-09-13T08:39:36;7.47;;;4.50;;
70305;SDS011;57714;51.698;5.344;2022-09-13T08:42:14;12.80;;;6.13;;
70305;SDS011;57714;51.698;5.344;2022-09-13T08:44:44;3.40;;;3.07;;
70305;SDS011;57714;51.698;5.344;2022-09-13T08:50:02;23.23;;;8.70;;
70305;SDS011;57714;51.698;5.344;2022-09-13T08:52:29;5.03;;;2.70;;
70305;SDS011;57714;51.698;5.344;2022-09-13T08:55:13;9.82;;;3.47;;
70305;SDS011;57714;51.698;5.344;2022-09-13T08:57:47;2.30;;;1.80;;
70305;SDS011;57714;51.698;5.344;2022-09-13T09:00:17;1.88;;;1.58;;
70305;SDS011;57714;51.698;5.344;2022-09-13T09:02:50;15.75;;;1.20;;
70305;SDS011;57714;51.698;5.344;2022-09-13T09:05:24;2.78;;;1.17;;
70305;SDS011;57714;51.698;5.344;2022-09-13T09:07:52;1.42;;;1.00;;
70305;SDS011;57714;51.698;5.344;2022-09-13T09:13:07;1.30;;;0.90;;
70305;SDS011;57714;51.698;5.344;2022-09-13T09:16:10;2.58;;;1.55;;
70305;SDS011;57714;51.698;5.344;2022-09-13T09:18:39;5.82;;;2.38;;
70305;SDS011;57714;51.698;5.344;2022-09-13T09:21:06;1.10;;;0.82;;
70305;SDS011;57714;51.698;5.344;2022-09-13T09:23:41;1.20;;;0.90;;
70305;SDS011;57714;51.698;5.344;2022-09-13T09:28:38;1.95;;;1.42;;
70305;SDS011;57714;51.698;5.344;2022-09-13T09:31:05;1.77;;;1.10;;
70305;SDS011;57714;51.698;5.344;2022-09-13T09:33:37;1.92;;;0.90;;
70305;SDS011;57714;51.698;5.344;2022-09-13T09:38:49;1.92;;;1.52;;
70305;SDS011;57714;51.698;5.344;2022-09-13T09:43:54;1.25;;;0.90;;
70305;SDS011;57714;51.698;5.344;2022-09-13T09:46:24;1.52;;;1.20;;
70305;SDS011;57714;51.698;5.344;2022-09-13T09:48:53;1.23;;;1.00;;
70305;SDS011;57714;51.698;5.344;2022-09-13T09:51:19;1.23;;;0.82;;
70305;SDS011;57714;51.698;5.344;2022-09-13T09:53:48;1.65;;;1.15;;
70305;SDS011;57714;51.698;5.344;2022-09-13T09:56:20;1.08;;;0.73;;
70305;SDS011;57714;51.698;5.344;2022-09-13T10:06:24;0.98;;;0.60;;
70305;SDS011;57714;51.698;5.344;2022-09-13T10:08:59;1.00;;;0.70;;
70305;SDS011;57714;51.698;5.344;2022-09-13T10:14:27;3.47;;;1.10;;
70305;SDS011;57714;51.698;5.344;2022-09-13T10:19:29;17.20;;;1.73;;
70305;SDS011;57714;51.698;5.344;2022-09-13T10:22:02;1.08;;;0.77;;
70305;SDS011;57714;51.698;5.344;2022-09-13T10:24:29;1.20;;;0.82;;
70305;SDS011;57714;51.698;5.344;2022-09-13T10:26:55;8.73;;;2.07;;
70305;SDS011;57714;51.698;5.344;2022-09-13T10:29:21;1.35;;;0.80;;
70305;SDS011;57714;51.698;5.344;2022-09-13T10:31:48;2.72;;;1.73;;
70305;SDS011;57714;51.698;5.344;2022-09-13T10:34:22;10.13;;;5.30;;
70305;SDS011;57714;51.698;5.344;2022-09-13T10:36:53;2.45;;;1.80;;
70305;SDS011;57714;51.698;5.344;2022-09-13T10:39:21;1.58;;;1.10;;
70305;SDS011;57714;51.698;5.344;2022-09-13T10:41:49;3.92;;;2.45;;
70305;SDS011;57714;51.698;5.344;2022-09-13T10:44:23;1.40;;;1.00;;
70305;SDS011;57714;51.698;5.344;2022-09-13T10:46:50;1.60;;;1.07;;
70305;SDS011;57714;51.698;5.344;2022-09-13T10:52:00;1.90;;;1.57;;
70305;SDS011;57714;51.698;5.344;2022-09-13T10:54:28;1.27;;;0.97;;
70305;SDS011;57714;51.698;5.344;2022-09-13T10:56:53;3.73;;;2.30;;
70305;SDS011;57714;51.698;5.344;2022-09-13T10:59:26;3.17;;;1.95;;
70305;SDS011;57714;51.698;5.344;2022-09-13T11:09:32;10.48;;;2.05;;
70305;SDS011;57714;51.698;5.344;2022-09-13T11:22:31;2.05;;;1.02;;
70305;SDS011;57714;51.698;5.344;2022-09-13T11:28:12;1.20;;;0.90;;
70305;SDS011;57714;51.698;5.344;2022-09-13T11:30:21;2.05;;;1.48;;
70305;SDS011;57714;51.698;5.344;2022-09-13T11:36:00;1.00;;;0.70;;
70305;SDS011;57714;51.698;5.344;2022-09-13T11:50:35;1.37;;;0.87;;
70305;SDS011;57714;51.698;5.344;2022-09-13T11:58:03;1.98;;;1.52;;
70305;SDS011;57714;51.698;5.344;2022-09-13T12:00:41;2.30;;;1.38;;
70305;SDS011;57714;51.698;5.344;2022-09-13T12:05:34;6.40;;;2.33;;
70305;SDS011;57714;51.698;5.344;2022-09-13T12:08:11;9.77;;;2.20;;
70305;SDS011;57714;51.698;5.344;2022-09-13T12:13:14;2.13;;;1.23;;
70305;SDS011;57714;51.698;5.344;2022-09-13T12:15:41;2.75;;;1.65;;
70305;SDS011;57714;51.698;5.344;2022-09-13T12:18:12;1.52;;;1.10;;
70305;SDS011;57714;51.698;5.344;2022-09-13T12:20:49;1.27;;;0.98;;
70305;SDS011;57714;51.698;5.344;2022-09-13T12:23:32;2.83;;;1.33;;
70305;SDS011;57714;51.698;5.344;2022-09-13T12:26:02;11.70;;;1.47;;
70305;SDS011;57714;51.698;5.344;2022-09-13T12:28:51;3.38;;;1.95;;
70305;SDS011;57714;51.698;5.344;2022-09-13T12:31:16;2.13;;;1.73;;
70305;SDS011;57714;51.698;5.344;2022-09-13T12:33:43;1.70;;;1.40;;
70305;SDS011;57714;51.698;5.344;2022-09-13T12:41:33;2.15;;;0.93;;
70305;SDS011;57714;51.698;5.344;2022-09-13T12:46:51;1.15;;;0.75;;
70305;SDS011;57714;51.698;5.344;2022-09-13T12:57:06;1.35;;;0.80;;
70305;SDS011;57714;51.698;5.344;2022-09-13T13:02:37;0.90;;;0.60;;
70305;SDS011;57714;51.698;5.344;2022-09-13T13:05:17;25.50;;;1.50;;
70305;SDS011;57714;51.698;5.344;2022-09-13T13:07:48;1.30;;;0.70;;
70305;SDS011;57714;51.698;5.344;2022-09-13T13:10:22;1.00;;;0.70;;
70305;SDS011;57714;51.698;5.344;2022-09-13T13:12:48;1.00;;;0.70;;
70305;SDS011;57714;51.698;5.344;2022-09-13T13:22:52;1.10;;;0.80;;
70305;SDS011;57714;51.698;5.344;2022-09-13T13:27:53;2.30;;;1.15;;
70305;SDS011;57714;51.698;5.344;2022-09-13T13:30:40;1.13;;;0.80;;
70305;SDS011;57714;51.698;5.344;2022-09-13T13:35:37;1.38;;;0.98;;
70305;SDS011;57714;51.698;5.344;2022-09-13T13:38:18;1.00;;;0.70;;
70305;SDS011;57714;51.698;5.344;2022-09-13T13:41:03;1.20;;;0.82;;
70305;SDS011;57714;51.698;5.344;2022-09-13T13:43:31;1.00;;;0.63;;
70305;SDS011;57714;51.698;5.344;2022-09-13T13:46:22;1.00;;;0.60;;
70305;SDS011;57714;51.698;5.344;2022-09-13T13:48:41;0.82;;;0.57;;
70305;SDS011;57714;51.698;5.344;2022-09-13T13:53:36;1.20;;;0.77;;
70305;SDS011;57714;51.698;5.344;2022-09-13T13:56:45;1.00;;;0.60;;
70305;SDS011;57714;51.698;5.344;2022-09-13T13:58:54;1.23;;;0.70;;
70305;SDS011;57714;51.698;5.344;2022-09-13T14:01:23;0.95;;;0.60;;
70305;SDS011;57714;51.698;5.344;2022-09-13T14:04:13;2.30;;;1.37;;
70305;SDS011;57714;51.698;5.344;2022-09-13T14:06:42;9.68;;;1.10;;
70305;SDS011;57714;51.698;5.344;2022-09-13T14:09:32;1.13;;;0.73;;
70305;SDS011;57714;51.698;5.344;2022-09-13T14:12:01;0.90;;;0.60;;
70305;SDS011;57714;51.698;5.344;2022-09-13T14:19:49;1.10;;;0.70;;
70305;SDS011;57714;51.698;5.344;2022-09-13T14:22:17;2.55;;;0.95;;
70305;SDS011;57714;51.698;5.344;2022-09-13T14:24:44;0.88;;;0.57;;
70305;SDS011;57714;51.698;5.344;2022-09-13T14:27:18;1.58;;;0.80;;
70305;SDS011;57714;51.698;5.344;2022-09-13T14:29:47;1.10;;;0.70;;
70305;SDS011;57714;51.698;5.344;2022-09-13T14:32:15;0.90;;;0.60;;
70305;SDS011;57714;51.698;5.344;2022-09-13T14:34:49;0.88;;;0.52;;
70305;SDS011;57714;51.698;5.344;2022-09-13T14:37:18;0.95;;;0.65;;
70305;SDS011;57714;51.698;5.344;2022-09-13T14:39:53;1.00;;;0.68;;
70305;SDS011;57714;51.698;5.344;2022-09-13T14:42:19;0.83;;;0.53;;
70305;SDS011;57714;51.698;5.344;2022-09-13T14:44:45;1.00;;;0.68;;
70305;SDS011;57714;51.698;5.344;2022-09-13T14:47:30;0.80;;;0.50;;
70305;SDS011;57714;51.698;5.344;2022-09-13T14:50:04;1.00;;;0.60;;
70305;SDS011;57714;51.698;5.344;2022-09-13T14:52:33;1.77;;;1.25;;
70305;SDS011;57714;51.698;5.344;2022-09-13T14:55:00;1.05;;;0.73;;
70305;SDS011;57714;51.698;5.344;2022-09-13T14:57:29;1.67;;;1.00;;
70305;SDS011;57714;51.698;5.344;2022-09-13T15:00:04;1.10;;;0.70;;
70305;SDS011;57714;51.698;5.344;2022-09-13T15:02:36;0.90;;;0.60;;
70305;SDS011;57714;51.698;5.344;2022-09-13T15:05:03;0.90;;;0.60;;
70305;SDS011;57714;51.698;5.344;2022-09-13T15:07:31;1.35;;;1.05;;
70305;SDS011;57714;51.698;5.344;2022-09-13T15:13:22;0.97;;;0.60;;
70305;SDS011;57714;51.698;5.344;2022-09-13T15:15:33;0.95;;;0.63;;
70305;SDS011;57714;51.698;5.344;2022-09-13T15:18:03;1.05;;;0.68;;
70305;SDS011;57714;51.698;5.344;2022-09-13T15:20:45;0.80;;;0.60;;
70305;SDS011;57714;51.698;5.344;2022-09-13T15:23:13;1.17;;;0.85;;
70305;SDS011;57714;51.698;5.344;2022-09-13T15:25:38;1.20;;;0.80;;
70305;SDS011;57714;51.698;5.344;2022-09-13T15:28:04;0.80;;;0.45;;
70305;SDS011;57714;51.698;5.344;2022-09-13T15:30:30;1.37;;;1.00;;
70305;SDS011;57714;51.698;5.344;2022-09-13T15:35:40;13.03;;;0.87;;
70305;SDS011;57714;51.698;5.344;2022-09-13T15:38:23;0.80;;;0.50;;
70305;SDS011;57714;51.698;5.344;2022-09-13T15:41:00;0.90;;;0.60;;
70305;SDS011;57714;51.698;5.344;2022-09-13T15:43:26;1.10;;;0.73;;
70305;SDS011;57714;51.698;5.344;2022-09-13T15:45:51;0.80;;;0.50;;
70305;SDS011;57714;51.698;5.344;2022-09-13T15:48:27;1.08;;;0.70;;
70305;SDS011;57714;51.698;5.344;2022-09-13T15:51:03;0.83;;;0.57;;
70305;SDS011;57714;51.698;5.344;2022-09-13T15:53:29;1.10;;;0.60;;
70305;SDS011;57714;51.698;5.344;2022-09-13T15:55:55;1.10;;;0.80;;
70305;SDS011;57714;51.698;5.344;2022-09-13T15:58:20;0.80;;;0.50;;
70305;SDS011;57714;51.698;5.344;2022-09-13T16:00:46;1.00;;;0.70;;
70305;SDS011;57714;51.698;5.344;2022-09-13T16:03:11;1.70;;;1.10;;
70305;SDS011;57714;51.698;5.344;2022-09-13T16:05:36;1.00;;;0.60;;
70305;SDS011;57714;51.698;5.344;2022-09-13T16:08:02;1.00;;;0.63;;
70305;SDS011;57714;51.698;5.344;2022-09-13T16:10:27;45.73;;;1.40;;
70305;SDS011;57714;51.698;5.344;2022-09-13T16:12:53;0.90;;;0.57;;
70305;SDS011;57714;51.698;5.344;2022-09-13T16:15:19;0.80;;;0.50;;
70305;SDS011;57714;51.698;5.344;2022-09-13T16:17:45;0.80;;;0.50;;
70305;SDS011;57714;51.698;5.344;2022-09-13T16:20:11;1.00;;;0.70;;
70305;SDS011;57714;51.698;5.344;2022-09-13T16:22:37;1.88;;;0.75;;
70305;SDS011;57714;51.698;5.344;2022-09-13T16:25:03;0.90;;;0.60;;
70305;SDS011;57714;51.698;5.344;2022-09-13T16:27:28;13.67;;;2.00;;
70305;SDS011;57714;51.698;5.344;2022-09-13T16:29:54;1.03;;;0.60;;
70305;SDS011;57714;51.698;5.344;2022-09-13T16:32:19;1.73;;;0.70;;
70305;SDS011;57714;51.698;5.344;2022-09-13T16:34:45;1.10;;;0.75;;
70305;SDS011;57714;51.698;5.344;2022-09-13T16:37:15;1.10;;;0.70;;
70305;SDS011;57714;51.698;5.344;2022-09-13T16:39:41;1.17;;;0.82;;
70305;SDS011;57714;51.698;5.344;2022-09-13T16:42:06;1.00;;;0.60;;
70305;SDS011;57714;51.698;5.344;2022-09-13T16:44:32;0.83;;;0.50;;
70305;SDS011;57714;51.698;5.344;2022-09-13T16:46:58;1.20;;;0.80;;
70305;SDS011;57714;51.698;5.344;2022-09-13T16:49:24;0.90;;;0.50;;
70305;SDS011;57714;51.698;5.344;2022-09-13T16:51:49;1.03;;;0.63;;
70305;SDS011;57714;51.698;5.344;2022-09-13T16:54:15;1.10;;;0.80;;
70305;SDS011;57714;51.698;5.344;2022-09-13T16:56:40;1.20;;;0.80;;
70305;SDS011;57714;51.698;5.344;2022-09-13T16:59:06;1.10;;;0.70;;
70305;SDS011;57714;51.698;5.344;2022-09-13T17:01:31;0.70;;;0.50;;
70305;SDS011;57714;51.698;5.344;2022-09-13T17:03:56;0.90;;;0.60;;
70305;SDS011;57714;51.698;5.344;2022-09-13T17:06:22;0.65;;;0.40;;
70305;SDS011;57714;51.698;5.344;2022-09-13T17:08:52;1.83;;;1.07;;
70305;SDS011;57714;51.698;5.344;2022-09-13T17:11:18;0.90;;;0.60;;
70305;SDS011;57714;51.698;5.344;2022-09-13T17:13:44;1.00;;;0.70;;
70305;SDS011;57714;51.698;5.344;2022-09-13T17:16:28;0.90;;;0.60;;
70305;SDS011;57714;51.698;5.344;2022-09-13T17:18:53;1.00;;;0.60;;
70305;SDS011;57714;51.698;5.344;2022-09-13T17:21:21;0.90;;;0.60;;
70305;SDS011;57714;51.698;5.344;2022-09-13T17:23:46;0.83;;;0.53;;
70305;SDS011;57714;51.698;5.344;2022-09-13T17:26:12;1.00;;;0.60;;
70305;SDS011;57714;51.698;5.344;2022-09-13T17:28:37;1.10;;;0.70;;
70305;SDS011;57714;51.698;5.344;2022-09-13T17:31:03;1.00;;;0.63;;
70305;SDS011;57714;51.698;5.344;2022-09-13T17:33:30;1.37;;;0.87;;
70305;SDS011;57714;51.698;5.344;2022-09-13T17:36:03;1.00;;;0.70;;
70305;SDS011;57714;51.698;5.344;2022-09-13T17:38:29;1.20;;;0.80;;
70305;SDS011;57714;51.698;5.344;2022-09-13T17:41:04;0.90;;;0.52;;
70305;SDS011;57714;51.698;5.344;2022-09-13T17:43:30;0.90;;;0.60;;
70305;SDS011;57714;51.698;5.344;2022-09-13T17:45:55;0.80;;;0.50;;
70305;SDS011;57714;51.698;5.344;2022-09-13T17:48:21;0.97;;;0.70;;
70305;SDS011;57714;51.698;5.344;2022-09-13T17:50:46;0.90;;;0.60;;
70305;SDS011;57714;51.698;5.344;2022-09-13T17:53:12;0.90;;;0.60;;